sensor_id;sensor_type;location;lat;lon;timestamp;temperature;humidity
15535;DHT22;7869;49.264;8.596;2022-12-07T00:01:07;3.40;99.90
15535;DHT22;7869;49.264;8.596;2022-12-07T00:03:34;3.40;99.90
15535;DHT22;7869;49.264;8.596;2022-12-07T00:06:02;3.30;99.90
15535;DHT22;7869;49.264;8.596;2022-12-07T00:08:28;3.40;99.90
15535;DHT22;7869;49.264;8.596;2022-12-07T00:10:54;3.30;99.90
15535;DHT22;7869;49.264;8.596;2022-12-07T00:13:20;3.40;99.90
15535;DHT22;7869;49.264;8.596;2022-12-07T00:15:45;3.30;99.90
15535;DHT22;7869;49.264;8.596;2022-12-07T00:18:11;3.30;99.90
15535;DHT22;7869;49.264;8.596;2022-12-07T00:20:36;3.30;99.90
15535;DHT22;7869;49.264;8.596;2022-12-07T00:23:02;3.20;99.90
15535;DHT22;7869;49.264;8.596;2022-12-07T00:25:27;3.20;99.90
15535;DHT22;7869;49.264;8.596;2022-12-07T00:27:53;3.20;99.90
15535;DHT22;7869;49.264;8.596;2022-12-07T00:30:22;3.20;99.90
15535;DHT22;7869;49.264;8.596;2022-12-07T00:32:47;3.20;99.90
15535;DHT22;7869;49.264;8.596;2022-12-07T00:35:13;3.20;99.90
15535;DHT22;7869;49.264;8.596;2022-12-07T00:37:39;3.20;99.90
15535;DHT22;7869;49.264;8.596;2022-12-07T00:40:05;3.10;99.90
15535;DHT22;7869;49.264;8.596;2022-12-07T00:42:31;3.10;99.90
15535;DHT22;7869;49.264;8.596;2022-12-07T00:44:56;3.10;99.90
15535;DHT22;7869;49.264;8.596;2022-12-07T00:47:22;3.00;99.90
15535;DHT22;7869;49.264;8.596;2022-12-07T00:49:47;3.00;99.90
15535;DHT22;7869;49.264;8.596;2022-12-07T00:52:13;3.00;99.90
15535;DHT22;7869;49.264;8.596;2022-12-07T00:54:40;3.00;99.90
15535;DHT22;7869;49.264;8.596;2022-12-07T00:57:05;3.00;99.90
15535;DHT22;7869;49.264;8.596;2022-12-07T00:59:31;3.00;99.90
15535;DHT22;7869;49.264;8.596;2022-12-07T01:01:57;3.00;99.90
15535;DHT22;7869;49.264;8.596;2022-12-07T01:04:22;3.00;99.90
15535;DHT22;7869;49.264;8.596;2022-12-07T01:06:48;3.10;99.90
15535;DHT22;7869;49.264;8.596;2022-12-07T01:09:13;3.20;99.90
15535;DHT22;7869;49.264;8.596;2022-12-07T01:11:39;3.20;99.90
15535;DHT22;7869;49.264;8.596;2022-12-07T01:14:04;3.20;99.90
15535;DHT22;7869;49.264;8.596;2022-12-07T01:16:31;3.20;99.90
15535;DHT22;7869;49.264;8.596;2022-12-07T01:18:57;3.20;99.90
15535;DHT22;7869;49.264;8.596;2022-12-07T01:21:26;3.20;99.90
15535;DHT22;7869;49.264;8.596;2022-12-07T01:23:52;3.20;99.90
15535;DHT22;7869;49.264;8.596;2022-12-07T01:26:21;3.20;99.90
15535;DHT22;7869;49.264;8.596;2022-12-07T01:28:47;3.20;99.90
15535;DHT22;7869;49.264;8.596;2022-12-07T01:31:18;3.20;99.90
15535;DHT22;7869;49.264;8.596;2022-12-07T01:33:47;3.20;99.90
15535;DHT22;7869;49.264;8.596;2022-12-07T01:36:18;3.30;99.90
15535;DHT22;7869;49.264;8.596;2022-12-07T01:38:45;3.30;99.90
15535;DHT22;7869;49.264;8.596;2022-12-07T01:41:11;3.30;99.90
15535;DHT22;7869;49.264;8.596;2022-12-07T01:46:54;3.20;99.90
15535;DHT22;7869;49.264;8.596;2022-12-07T01:49:42;3.20;99.90
15535;DHT22;7869;49.264;8.596;2022-12-07T01:54:44;3.30;99.90
15535;DHT22;7869;49.264;8.596;2022-12-07T01:57:12;3.30;99.90
15535;DHT22;7869;49.264;8.596;2022-12-07T01:59:38;3.30;99.90
15535;DHT22;7869;49.264;8.596;2022-12-07T02:02:08;3.30;99.90
15535;DHT22;7869;49.264;8.596;2022-12-07T02:04:35;3.30;99.90
15535;DHT22;7869;49.264;8.596;2022-12-07T02:07:03;3.30;99.90
15535;DHT22;7869;49.264;8.596;2022-12-07T02:09:29;3.20;99.90
15535;DHT22;7869;49.264;8.596;2022-12-07T02:11:55;3.30;99.90
15535;DHT22;7869;49.264;8.596;2022-12-07T02:14:21;3.30;99.90
15535;DHT22;7869;49.264;8.596;2022-12-07T02:16:56;3.30;99.90
15535;DHT22;7869;49.264;8.596;2022-12-07T02:19:58;3.30;99.90
15535;DHT22;7869;49.264;8.596;2022-12-07T02:28:07;3.30;99.90
15535;DHT22;7869;49.264;8.596;2022-12-07T02:30:42;3.30;99.90
15535;DHT22;7869;49.264;8.596;2022-12-07T02:36:08;3.30;99.90
15535;DHT22;7869;49.264;8.596;2022-12-07T02:38:49;3.30;99.90
15535;DHT22;7869;49.264;8.596;2022-12-07T02:41:43;3.30;99.90
15535;DHT22;7869;49.264;8.596;2022-12-07T02:44:13;3.30;99.90
15535;DHT22;7869;49.264;8.596;2022-12-07T02:46:46;3.30;99.90
15535;DHT22;7869;49.264;8.596;2022-12-07T02:49:15;3.30;99.90
15535;DHT22;7869;49.264;8.596;2022-12-07T02:51:43;3.30;99.90
15535;DHT22;7869;49.264;8.596;2022-12-07T02:54:14;3.20;99.90
15535;DHT22;7869;49.264;8.596;2022-12-07T02:56:48;3.20;99.90
15535;DHT22;7869;49.264;8.596;2022-12-07T03:07:29;3.10;99.90
15535;DHT22;7869;49.264;8.596;2022-12-07T03:10:24;3.10;99.90
15535;DHT22;7869;49.264;8.596;2022-12-07T03:13:02;3.00;99.90
15535;DHT22;7869;49.264;8.596;2022-12-07T03:15:35;2.90;99.90
15535;DHT22;7869;49.264;8.596;2022-12-07T03:18:07;3.00;99.90
15535;DHT22;7869;49.264;8.596;2022-12-07T03:20:35;3.00;99.90
15535;DHT22;7869;49.264;8.596;2022-12-07T03:23:04;3.00;99.90
15535;DHT22;7869;49.264;8.596;2022-12-07T03:25:31;3.00;99.90
15535;DHT22;7869;49.264;8.596;2022-12-07T03:28:02;3.00;99.90
15535;DHT22;7869;49.264;8.596;2022-12-07T03:30:49;3.00;99.90
15535;DHT22;7869;49.264;8.596;2022-12-07T03:33:29;3.00;99.90
15535;DHT22;7869;49.264;8.596;2022-12-07T03:36:01;2.90;99.90
15535;DHT22;7869;49.264;8.596;2022-12-07T03:43:36;2.90;99.90
15535;DHT22;7869;49.264;8.596;2022-12-07T03:46:27;3.00;99.90
15535;DHT22;7869;49.264;8.596;2022-12-07T03:51:54;2.90;99.90
15535;DHT22;7869;49.264;8.596;2022-12-07T03:55:00;2.90;99.90
15535;DHT22;7869;49.264;8.596;2022-12-07T03:57:29;2.90;99.90
15535;DHT22;7869;49.264;8.596;2022-12-07T03:59:56;2.90;99.90
15535;DHT22;7869;49.264;8.596;2022-12-07T04:02:24;2.90;99.90
15535;DHT22;7869;49.264;8.596;2022-12-07T04:04:50;2.90;99.90
15535;DHT22;7869;49.264;8.596;2022-12-07T04:07:16;2.90;99.90
15535;DHT22;7869;49.264;8.596;2022-12-07T04:09:41;2.80;99.90
15535;DHT22;7869;49.264;8.596;2022-12-07T04:12:07;2.90;99.90
15535;DHT22;7869;49.264;8.596;2022-12-07T04:14:33;2.90;99.90
15535;DHT22;7869;49.264;8.596;2022-12-07T04:16:59;3.00;99.90
15535;DHT22;7869;49.264;8.596;2022-12-07T04:19:29;3.00;99.90
15535;DHT22;7869;49.264;8.596;2022-12-07T04:21:56;3.00;99.90
15535;DHT22;7869;49.264;8.596;2022-12-07T04:24:23;3.00;99.90
15535;DHT22;7869;49.264;8.596;2022-12-07T04:26:49;3.00;99.90
15535;DHT22;7869;49.264;8.596;2022-12-07T04:29:15;3.00;99.90
15535;DHT22;7869;49.264;8.596;2022-12-07T04:31:41;3.00;99.90
15535;DHT22;7869;49.264;8.596;2022-12-07T04:34:08;3.00;99.90
15535;DHT22;7869;49.264;8.596;2022-12-07T04:36:33;3.00;99.90
15535;DHT22;7869;49.264;8.596;2022-12-07T04:38:59;3.00;99.90
15535;DHT22;7869;49.264;8.596;2022-12-07T04:41:25;3.00;99.90
15535;DHT22;7869;49.264;8.596;2022-12-07T04:43:59;3.10;99.90
15535;DHT22;7869;49.264;8.596;2022-12-07T04:46:27;3.10;99.90
15535;DHT22;7869;49.264;8.596;2022-12-07T04:48:53;3.10;99.90
15535;DHT22;7869;49.264;8.596;2022-12-07T04:51:28;3.10;99.90
15535;DHT22;7869;49.264;8.596;2022-12-07T04:53:54;3.10;99.90
15535;DHT22;7869;49.264;8.596;2022-12-07T04:56:20;3.10;99.90
15535;DHT22;7869;49.264;8.596;2022-12-07T04:58:47;3.10;99.90
15535;DHT22;7869;49.264;8.596;2022-12-07T05:01:13;3.10;99.90
15535;DHT22;7869;49.264;8.596;2022-12-07T05:03:39;3.20;99.90
15535;DHT22;7869;49.264;8.596;2022-12-07T05:06:06;3.20;99.90
15535;DHT22;7869;49.264;8.596;2022-12-07T05:08:32;3.20;99.90
15535;DHT22;7869;49.264;8.596;2022-12-07T05:10:58;3.20;99.90
15535;DHT22;7869;49.264;8.596;2022-12-07T05:13:24;3.10;99.90
15535;DHT22;7869;49.264;8.596;2022-12-07T05:15:50;3.20;99.90
15535;DHT22;7869;49.264;8.596;2022-12-07T05:18:15;3.20;99.90
15535;DHT22;7869;49.264;8.596;2022-12-07T05:20:42;3.20;99.90
15535;DHT22;7869;49.264;8.596;2022-12-07T05:23:08;3.30;99.90
15535;DHT22;7869;49.264;8.596;2022-12-07T05:25:34;3.30;99.90
15535;DHT22;7869;49.264;8.596;2022-12-07T05:27:59;3.30;99.90
15535;DHT22;7869;49.264;8.596;2022-12-07T05:30:27;3.20;99.90
15535;DHT22;7869;49.264;8.596;2022-12-07T05:32:53;3.30;99.90
15535;DHT22;7869;49.264;8.596;2022-12-07T05:35:19;3.30;99.90
15535;DHT22;7869;49.264;8.596;2022-12-07T05:37:44;3.20;99.90
15535;DHT22;7869;49.264;8.596;2022-12-07T05:40:11;3.20;99.90
15535;DHT22;7869;49.264;8.596;2022-12-07T05:42:37;3.20;99.90
15535;DHT22;7869;49.264;8.596;2022-12-07T05:45:03;3.20;99.90
15535;DHT22;7869;49.264;8.596;2022-12-07T05:47:29;3.20;99.90
15535;DHT22;7869;49.264;8.596;2022-12-07T05:49:54;3.30;99.90
15535;DHT22;7869;49.264;8.596;2022-12-07T05:52:20;3.20;99.90
15535;DHT22;7869;49.264;8.596;2022-12-07T05:54:46;3.20;99.90
15535;DHT22;7869;49.264;8.596;2022-12-07T05:57:12;3.20;99.90
15535;DHT22;7869;49.264;8.596;2022-12-07T05:59:37;3.20;99.90
15535;DHT22;7869;49.264;8.596;2022-12-07T06:02:06;3.20;99.90
15535;DHT22;7869;49.264;8.596;2022-12-07T06:04:35;3.30;99.90
15535;DHT22;7869;49.264;8.596;2022-12-07T06:07:01;3.30;99.90
15535;DHT22;7869;49.264;8.596;2022-12-07T06:09:27;3.20;99.90
15535;DHT22;7869;49.264;8.596;2022-12-07T06:11:53;3.20;99.90
15535;DHT22;7869;49.264;8.596;2022-12-07T06:14:38;3.20;99.90
15535;DHT22;7869;49.264;8.596;2022-12-07T06:17:04;3.30;99.90
15535;DHT22;7869;49.264;8.596;2022-12-07T06:19:30;3.30;99.90
15535;DHT22;7869;49.264;8.596;2022-12-07T06:21:56;3.30;99.90
15535;DHT22;7869;49.264;8.596;2022-12-07T06:24:22;3.20;99.90
15535;DHT22;7869;49.264;8.596;2022-12-07T06:26:48;3.30;99.90
15535;DHT22;7869;49.264;8.596;2022-12-07T06:29:14;3.20;99.90
15535;DHT22;7869;49.264;8.596;2022-12-07T06:31:39;3.20;99.90
15535;DHT22;7869;49.264;8.596;2022-12-07T06:34:16;3.20;99.90
15535;DHT22;7869;49.264;8.596;2022-12-07T06:36:42;3.20;99.90
15535;DHT22;7869;49.264;8.596;2022-12-07T06:39:08;3.30;99.90
15535;DHT22;7869;49.264;8.596;2022-12-07T06:41:35;3.30;99.90
15535;DHT22;7869;49.264;8.596;2022-12-07T06:44:02;3.30;99.90
15535;DHT22;7869;49.264;8.596;2022-12-07T06:46:27;3.30;99.90
15535;DHT22;7869;49.264;8.596;2022-12-07T06:48:53;3.30;99.90
15535;DHT22;7869;49.264;8.596;2022-12-07T06:51:19;3.30;99.90
15535;DHT22;7869;49.264;8.596;2022-12-07T06:53:44;3.30;99.90
15535;DHT22;7869;49.264;8.596;2022-12-07T06:56:10;3.30;99.90
15535;DHT22;7869;49.264;8.596;2022-12-07T06:58:35;3.30;99.90
15535;DHT22;7869;49.264;8.596;2022-12-07T07:01:02;3.30;99.90
15535;DHT22;7869;49.264;8.596;2022-12-07T07:03:28;3.30;99.90
15535;DHT22;7869;49.264;8.596;2022-12-07T07:05:53;3.30;99.90
15535;DHT22;7869;49.264;8.596;2022-12-07T07:08:19;3.30;99.90
15535;DHT22;7869;49.264;8.596;2022-12-07T07:10:44;3.40;99.90
15535;DHT22;7869;49.264;8.596;2022-12-07T07:13:10;3.40;99.90
15535;DHT22;7869;49.264;8.596;2022-12-07T07:15:38;3.30;99.90
15535;DHT22;7869;49.264;8.596;2022-12-07T07:18:04;3.40;99.90
15535;DHT22;7869;49.264;8.596;2022-12-07T07:20:29;3.40;99.90
15535;DHT22;7869;49.264;8.596;2022-12-07T07:22:55;3.40;99.90
15535;DHT22;7869;49.264;8.596;2022-12-07T07:25:21;3.40;99.90
15535;DHT22;7869;49.264;8.596;2022-12-07T07:27:47;3.40;99.90
15535;DHT22;7869;49.264;8.596;2022-12-07T07:30:13;3.50;99.90
15535;DHT22;7869;49.264;8.596;2022-12-07T07:32:38;3.50;99.90
15535;DHT22;7869;49.264;8.596;2022-12-07T07:35:04;3.50;99.90
15535;DHT22;7869;49.264;8.596;2022-12-07T07:37:30;3.50;99.90
15535;DHT22;7869;49.264;8.596;2022-12-07T07:39:55;3.50;99.90
15535;DHT22;7869;49.264;8.596;2022-12-07T07:42:21;3.50;99.90
15535;DHT22;7869;49.264;8.596;2022-12-07T07:44:47;3.50;99.90
15535;DHT22;7869;49.264;8.596;2022-12-07T07:47:13;3.60;99.90
15535;DHT22;7869;49.264;8.596;2022-12-07T07:49:38;3.60;99.90
15535;DHT22;7869;49.264;8.596;2022-12-07T07:52:05;3.60;99.90
15535;DHT22;7869;49.264;8.596;2022-12-07T07:54:31;3.60;99.90
15535;DHT22;7869;49.264;8.596;2022-12-07T07:56:57;3.70;99.90
15535;DHT22;7869;49.264;8.596;2022-12-07T07:59:22;3.70;99.90
15535;DHT22;7869;49.264;8.596;2022-12-07T08:01:48;3.70;99.90
15535;DHT22;7869;49.264;8.596;2022-12-07T08:04:13;3.80;99.90
15535;DHT22;7869;49.264;8.596;2022-12-07T08:06:39;3.80;99.90
15535;DHT22;7869;49.264;8.596;2022-12-07T08:09:04;3.80;99.90
15535;DHT22;7869;49.264;8.596;2022-12-07T08:11:31;3.80;99.90
15535;DHT22;7869;49.264;8.596;2022-12-07T08:13:57;3.80;99.90
15535;DHT22;7869;49.264;8.596;2022-12-07T08:16:22;3.90;99.90
15535;DHT22;7869;49.264;8.596;2022-12-07T08:18:48;3.90;99.90
15535;DHT22;7869;49.264;8.596;2022-12-07T08:21:15;3.90;99.90
15535;DHT22;7869;49.264;8.596;2022-12-07T08:23:41;3.90;99.90
15535;DHT22;7869;49.264;8.596;2022-12-07T08:26:12;4.00;99.90
15535;DHT22;7869;49.264;8.596;2022-12-07T08:28:38;4.00;99.90
15535;DHT22;7869;49.264;8.596;2022-12-07T08:31:06;4.10;99.90
15535;DHT22;7869;49.264;8.596;2022-12-07T08:33:33;4.10;99.90
15535;DHT22;7869;49.264;8.596;2022-12-07T08:36:07;4.10;99.90
15535;DHT22;7869;49.264;8.596;2022-12-07T08:38:35;4.10;99.90
15535;DHT22;7869;49.264;8.596;2022-12-07T08:41:00;4.20;99.90
15535;DHT22;7869;49.264;8.596;2022-12-07T08:43:26;4.20;99.90
15535;DHT22;7869;49.264;8.596;2022-12-07T08:46:13;4.30;99.90
15535;DHT22;7869;49.264;8.596;2022-12-07T08:48:49;4.40;99.90
15535;DHT22;7869;49.264;8.596;2022-12-07T08:51:15;4.40;99.90
15535;DHT22;7869;49.264;8.596;2022-12-07T08:53:41;4.40;99.90
15535;DHT22;7869;49.264;8.596;2022-12-07T08:56:07;4.40;99.90
15535;DHT22;7869;49.264;8.596;2022-12-07T08:58:35;4.40;99.90
15535;DHT22;7869;49.264;8.596;2022-12-07T09:01:01;4.40;99.90
15535;DHT22;7869;49.264;8.596;2022-12-07T09:03:26;4.40;99.90
15535;DHT22;7869;49.264;8.596;2022-12-07T09:05:53;4.40;99.90
15535;DHT22;7869;49.264;8.596;2022-12-07T09:08:19;4.30;99.90
15535;DHT22;7869;49.264;8.596;2022-12-07T09:10:45;4.30;99.90
15535;DHT22;7869;49.264;8.596;2022-12-07T09:13:10;4.40;99.90
15535;DHT22;7869;49.264;8.596;2022-12-07T09:15:36;4.30;99.90
15535;DHT22;7869;49.264;8.596;2022-12-07T09:18:01;4.30;99.90
15535;DHT22;7869;49.264;8.596;2022-12-07T09:20:27;4.30;99.90
15535;DHT22;7869;49.264;8.596;2022-12-07T09:22:52;4.30;99.90
15535;DHT22;7869;49.264;8.596;2022-12-07T09:25:18;4.30;99.90
15535;DHT22;7869;49.264;8.596;2022-12-07T09:27:43;4.30;99.90
15535;DHT22;7869;49.264;8.596;2022-12-07T09:30:09;4.30;99.90
15535;DHT22;7869;49.264;8.596;2022-12-07T09:32:35;4.30;99.90
15535;DHT22;7869;49.264;8.596;2022-12-07T09:35:00;4.30;99.90
15535;DHT22;7869;49.264;8.596;2022-12-07T09:37:26;4.30;99.90
15535;DHT22;7869;49.264;8.596;2022-12-07T09:39:51;4.30;99.90
15535;DHT22;7869;49.264;8.596;2022-12-07T09:42:39;4.40;99.90
15535;DHT22;7869;49.264;8.596;2022-12-07T09:45:10;4.40;99.90
15535;DHT22;7869;49.264;8.596;2022-12-07T09:47:37;4.50;99.90
15535;DHT22;7869;49.264;8.596;2022-12-07T09:50:06;4.50;99.90
15535;DHT22;7869;49.264;8.596;2022-12-07T09:52:32;4.50;99.90
15535;DHT22;7869;49.264;8.596;2022-12-07T09:54:58;4.50;99.90
15535;DHT22;7869;49.264;8.596;2022-12-07T09:57:29;4.60;99.90
15535;DHT22;7869;49.264;8.596;2022-12-07T10:00:02;4.60;99.90
15535;DHT22;7869;49.264;8.596;2022-12-07T10:02:36;4.60;99.90
15535;DHT22;7869;49.264;8.596;2022-12-07T10:05:06;4.60;99.90
15535;DHT22;7869;49.264;8.596;2022-12-07T10:07:34;4.70;99.90
15535;DHT22;7869;49.264;8.596;2022-12-07T10:10:03;4.70;99.90
15535;DHT22;7869;49.264;8.596;2022-12-07T10:12:28;4.70;99.90
15535;DHT22;7869;49.264;8.596;2022-12-07T10:15:02;4.70;99.90
15535;DHT22;7869;49.264;8.596;2022-12-07T10:17:39;4.70;99.90
15535;DHT22;7869;49.264;8.596;2022-12-07T10:22:37;4.80;99.90
15535;DHT22;7869;49.264;8.596;2022-12-07T10:25:18;4.80;99.90
15535;DHT22;7869;49.264;8.596;2022-12-07T10:28:00;4.80;99.90
15535;DHT22;7869;49.264;8.596;2022-12-07T10:30:26;4.90;99.90
15535;DHT22;7869;49.264;8.596;2022-12-07T10:32:52;4.90;99.90
15535;DHT22;7869;49.264;8.596;2022-12-07T10:35:30;5.00;99.90
15535;DHT22;7869;49.264;8.596;2022-12-07T10:37:58;5.00;99.90
15535;DHT22;7869;49.264;8.596;2022-12-07T10:40:30;5.00;99.90
15535;DHT22;7869;49.264;8.596;2022-12-07T10:49:01;5.30;99.90
15535;DHT22;7869;49.264;8.596;2022-12-07T10:51:27;5.30;99.90
15535;DHT22;7869;49.264;8.596;2022-12-07T11:00:19;5.40;99.90
15535;DHT22;7869;49.264;8.596;2022-12-07T11:03:14;5.60;99.90
15535;DHT22;7869;49.264;8.596;2022-12-07T11:06:01;5.60;99.90
15535;DHT22;7869;49.264;8.596;2022-12-07T11:16:52;5.60;99.90
15535;DHT22;7869;49.264;8.596;2022-12-07T11:28:15;5.70;99.90
15535;DHT22;7869;49.264;8.596;2022-12-07T11:31:08;5.80;99.90
15535;DHT22;7869;49.264;8.596;2022-12-07T11:33:47;5.80;99.90
15535;DHT22;7869;49.264;8.596;2022-12-07T11:36:32;5.80;99.90
15535;DHT22;7869;49.264;8.596;2022-12-07T11:39:11;5.80;99.90
15535;DHT22;7869;49.264;8.596;2022-12-07T11:41:42;5.80;99.90
15535;DHT22;7869;49.264;8.596;2022-12-07T11:44:39;5.80;99.90
15535;DHT22;7869;49.264;8.596;2022-12-07T11:49:45;6.00;99.90
15535;DHT22;7869;49.264;8.596;2022-12-07T11:55:24;6.00;99.90
15535;DHT22;7869;49.264;8.596;2022-12-07T11:57:58;6.10;99.90
15535;DHT22;7869;49.264;8.596;2022-12-07T12:00:25;6.10;99.90
15535;DHT22;7869;49.264;8.596;2022-12-07T12:05:24;6.10;99.90
15535;DHT22;7869;49.264;8.596;2022-12-07T12:08:15;6.10;99.90
15535;DHT22;7869;49.264;8.596;2022-12-07T12:16:45;6.10;99.90
15535;DHT22;7869;49.264;8.596;2022-12-07T12:19:22;6.00;99.90
15535;DHT22;7869;49.264;8.596;2022-12-07T12:22:00;5.90;99.90
15535;DHT22;7869;49.264;8.596;2022-12-07T12:24:31;5.80;99.90
15535;DHT22;7869;49.264;8.596;2022-12-07T12:27:15;5.80;99.90
15535;DHT22;7869;49.264;8.596;2022-12-07T12:29:43;5.70;99.90
15535;DHT22;7869;49.264;8.596;2022-12-07T12:32:13;5.70;99.90
15535;DHT22;7869;49.264;8.596;2022-12-07T12:35:00;5.60;99.90
15535;DHT22;7869;49.264;8.596;2022-12-07T12:37:39;5.60;99.90
15535;DHT22;7869;49.264;8.596;2022-12-07T12:42:53;5.60;99.90
15535;DHT22;7869;49.264;8.596;2022-12-07T12:45:25;5.70;99.90
15535;DHT22;7869;49.264;8.596;2022-12-07T12:48:04;5.80;99.90
15535;DHT22;7869;49.264;8.596;2022-12-07T12:50:35;5.80;99.90
15535;DHT22;7869;49.264;8.596;2022-12-07T12:53:16;5.80;99.90
15535;DHT22;7869;49.264;8.596;2022-12-07T12:58:31;5.70;99.90
15535;DHT22;7869;49.264;8.596;2022-12-07T13:03:57;5.80;99.90
15535;DHT22;7869;49.264;8.596;2022-12-07T13:08:53;5.90;99.90
15535;DHT22;7869;49.264;8.596;2022-12-07T13:11:35;5.90;99.90
15535;DHT22;7869;49.264;8.596;2022-12-07T13:14:39;5.90;99.90
15535;DHT22;7869;49.264;8.596;2022-12-07T13:17:09;5.90;99.90
15535;DHT22;7869;49.264;8.596;2022-12-07T13:25:08;5.90;99.90
15535;DHT22;7869;49.264;8.596;2022-12-07T13:27:37;5.80;99.90
15535;DHT22;7869;49.264;8.596;2022-12-07T13:30:17;5.80;99.90
15535;DHT22;7869;49.264;8.596;2022-12-07T13:32:51;5.80;99.90
15535;DHT22;7869;49.264;8.596;2022-12-07T13:37:53;5.70;99.90
15535;DHT22;7869;49.264;8.596;2022-12-07T13:40:21;5.70;99.90
15535;DHT22;7869;49.264;8.596;2022-12-07T13:42:47;5.70;99.90
15535;DHT22;7869;49.264;8.596;2022-12-07T13:45:26;5.60;99.90
15535;DHT22;7869;49.264;8.596;2022-12-07T13:48:24;5.60;99.90
15535;DHT22;7869;49.264;8.596;2022-12-07T13:50:57;5.60;99.90
15535;DHT22;7869;49.264;8.596;2022-12-07T13:53:24;5.60;99.90
15535;DHT22;7869;49.264;8.596;2022-12-07T13:55:50;5.60;99.90
15535;DHT22;7869;49.264;8.596;2022-12-07T13:58:16;5.60;99.90
15535;DHT22;7869;49.264;8.596;2022-12-07T14:00:42;5.60;99.90
15535;DHT22;7869;49.264;8.596;2022-12-07T14:05:37;5.60;99.90
15535;DHT22;7869;49.264;8.596;2022-12-07T14:08:22;5.60;99.90
15535;DHT22;7869;49.264;8.596;2022-12-07T14:16:00;5.60;99.90
15535;DHT22;7869;49.264;8.596;2022-12-07T14:18:41;5.60;99.90
15535;DHT22;7869;49.264;8.596;2022-12-07T14:23:36;5.70;99.90
15535;DHT22;7869;49.264;8.596;2022-12-07T14:26:28;5.70;99.90
15535;DHT22;7869;49.264;8.596;2022-12-07T14:29:29;5.70;99.90
15535;DHT22;7869;49.264;8.596;2022-12-07T14:31:57;5.70;99.90
15535;DHT22;7869;49.264;8.596;2022-12-07T14:34:24;5.60;99.90
15535;DHT22;7869;49.264;8.596;2022-12-07T14:36:50;5.60;99.90
15535;DHT22;7869;49.264;8.596;2022-12-07T14:39:16;5.60;99.90
15535;DHT22;7869;49.264;8.596;2022-12-07T14:41:41;5.60;99.90
15535;DHT22;7869;49.264;8.596;2022-12-07T14:44:17;5.60;99.90
15535;DHT22;7869;49.264;8.596;2022-12-07T14:46:43;5.60;99.90
15535;DHT22;7869;49.264;8.596;2022-12-07T14:49:08;5.50;99.90
15535;DHT22;7869;49.264;8.596;2022-12-07T14:51:36;5.50;99.90
15535;DHT22;7869;49.264;8.596;2022-12-07T14:54:04;5.40;99.90
15535;DHT22;7869;49.264;8.596;2022-12-07T14:56:30;5.40;99.90
15535;DHT22;7869;49.264;8.596;2022-12-07T14:58:56;5.40;99.90
15535;DHT22;7869;49.264;8.596;2022-12-07T15:01:21;5.30;99.90
15535;DHT22;7869;49.264;8.596;2022-12-07T15:03:47;5.30;99.90
15535;DHT22;7869;49.264;8.596;2022-12-07T15:06:17;5.30;99.90
15535;DHT22;7869;49.264;8.596;2022-12-07T15:08:43;5.30;99.90
15535;DHT22;7869;49.264;8.596;2022-12-07T15:11:18;5.20;99.90
15535;DHT22;7869;49.264;8.596;2022-12-07T15:13:43;5.20;99.90
15535;DHT22;7869;49.264;8.596;2022-12-07T15:16:27;5.20;99.90
15535;DHT22;7869;49.264;8.596;2022-12-07T15:18:53;5.20;99.90
15535;DHT22;7869;49.264;8.596;2022-12-07T15:21:19;5.20;99.90
15535;DHT22;7869;49.264;8.596;2022-12-07T15:23:46;5.10;99.90
15535;DHT22;7869;49.264;8.596;2022-12-07T15:26:12;5.10;99.90
15535;DHT22;7869;49.264;8.596;2022-12-07T15:28:39;5.10;99.90
15535;DHT22;7869;49.264;8.596;2022-12-07T15:31:14;5.10;99.90
15535;DHT22;7869;49.264;8.596;2022-12-07T15:33:40;5.00;99.90
15535;DHT22;7869;49.264;8.596;2022-12-07T15:36:06;5.00;99.90
15535;DHT22;7869;49.264;8.596;2022-12-07T15:38:32;5.00;99.90
15535;DHT22;7869;49.264;8.596;2022-12-07T15:40:57;5.00;99.90
15535;DHT22;7869;49.264;8.596;2022-12-07T15:43:23;5.00;99.90
15535;DHT22;7869;49.264;8.596;2022-12-07T15:46:07;4.90;99.90
15535;DHT22;7869;49.264;8.596;2022-12-07T15:48:33;5.00;99.90
15535;DHT22;7869;49.264;8.596;2022-12-07T15:51:03;4.90;99.90
15535;DHT22;7869;49.264;8.596;2022-12-07T15:53:29;5.00;99.90
15535;DHT22;7869;49.264;8.596;2022-12-07T15:55:55;4.90;99.90
15535;DHT22;7869;49.264;8.596;2022-12-07T15:58:20;4.90;99.90
15535;DHT22;7869;49.264;8.596;2022-12-07T16:00:46;4.90;99.90
15535;DHT22;7869;49.264;8.596;2022-12-07T16:03:13;4.90;99.90
15535;DHT22;7869;49.264;8.596;2022-12-07T16:05:39;4.90;99.90
15535;DHT22;7869;49.264;8.596;2022-12-07T16:08:04;4.80;99.90
15535;DHT22;7869;49.264;8.596;2022-12-07T16:10:30;4.80;99.90
15535;DHT22;7869;49.264;8.596;2022-12-07T16:12:56;4.80;99.90
15535;DHT22;7869;49.264;8.596;2022-12-07T16:15:21;4.80;99.90
15535;DHT22;7869;49.264;8.596;2022-12-07T16:17:50;4.70;99.90
15535;DHT22;7869;49.264;8.596;2022-12-07T16:20:15;4.70;99.90
15535;DHT22;7869;49.264;8.596;2022-12-07T16:22:41;4.70;99.90
15535;DHT22;7869;49.264;8.596;2022-12-07T16:25:07;4.70;99.90
15535;DHT22;7869;49.264;8.596;2022-12-07T16:27:33;4.60;99.90
15535;DHT22;7869;49.264;8.596;2022-12-07T16:29:59;4.60;99.90
15535;DHT22;7869;49.264;8.596;2022-12-07T16:32:24;4.60;99.90
15535;DHT22;7869;49.264;8.596;2022-12-07T16:34:49;4.70;99.90
15535;DHT22;7869;49.264;8.596;2022-12-07T16:37:15;4.60;99.90
15535;DHT22;7869;49.264;8.596;2022-12-07T16:39:40;4.60;99.90
15535;DHT22;7869;49.264;8.596;2022-12-07T16:42:06;4.60;99.90
15535;DHT22;7869;49.264;8.596;2022-12-07T16:44:32;4.50;99.90
15535;DHT22;7869;49.264;8.596;2022-12-07T16:46:57;4.50;99.90
15535;DHT22;7869;49.264;8.596;2022-12-07T16:49:23;4.50;99.90
15535;DHT22;7869;49.264;8.596;2022-12-07T16:51:50;4.50;99.90
15535;DHT22;7869;49.264;8.596;2022-12-07T16:54:16;4.50;99.90
15535;DHT22;7869;49.264;8.596;2022-12-07T16:56:41;4.50;99.90
15535;DHT22;7869;49.264;8.596;2022-12-07T16:59:07;4.50;99.90
15535;DHT22;7869;49.264;8.596;2022-12-07T17:01:33;4.50;99.90
15535;DHT22;7869;49.264;8.596;2022-12-07T17:03:59;4.50;99.90
15535;DHT22;7869;49.264;8.596;2022-12-07T17:06:27;4.40;99.90
15535;DHT22;7869;49.264;8.596;2022-12-07T17:08:53;4.40;99.90
15535;DHT22;7869;49.264;8.596;2022-12-07T17:11:28;4.40;99.90
15535;DHT22;7869;49.264;8.596;2022-12-07T17:13:56;4.40;99.90
15535;DHT22;7869;49.264;8.596;2022-12-07T17:16:40;4.40;99.90
15535;DHT22;7869;49.264;8.596;2022-12-07T17:19:09;4.50;99.90
15535;DHT22;7869;49.264;8.596;2022-12-07T17:21:34;4.50;99.90
15535;DHT22;7869;49.264;8.596;2022-12-07T17:24:02;4.50;99.90
15535;DHT22;7869;49.264;8.596;2022-12-07T17:26:28;4.40;99.90
15535;DHT22;7869;49.264;8.596;2022-12-07T17:28:54;4.40;99.90
15535;DHT22;7869;49.264;8.596;2022-12-07T17:31:21;4.40;99.90
15535;DHT22;7869;49.264;8.596;2022-12-07T17:33:47;4.40;99.90
15535;DHT22;7869;49.264;8.596;2022-12-07T17:38:43;4.40;99.90
15535;DHT22;7869;49.264;8.596;2022-12-07T17:41:14;4.40;99.90
15535;DHT22;7869;49.264;8.596;2022-12-07T17:44:06;4.40;99.90
15535;DHT22;7869;49.264;8.596;2022-12-07T17:46:32;4.30;99.90
15535;DHT22;7869;49.264;8.596;2022-12-07T17:48:58;4.30;99.90
15535;DHT22;7869;49.264;8.596;2022-12-07T17:51:26;4.30;99.90
15535;DHT22;7869;49.264;8.596;2022-12-07T17:54:11;4.30;99.90
15535;DHT22;7869;49.264;8.596;2022-12-07T17:56:37;4.30;99.90
15535;DHT22;7869;49.264;8.596;2022-12-07T17:59:03;4.30;99.90
15535;DHT22;7869;49.264;8.596;2022-12-07T18:01:29;4.30;99.90
15535;DHT22;7869;49.264;8.596;2022-12-07T18:03:55;4.30;99.90